Time;durP1;ratioP1;P1;durP2;ratioP2;P2;SDS_P1;SDS_P2;PMS_P1;PMS_P2;Temp;Humidity;BMP_temperature;BMP_pressure;BME280_temperature;BME280_humidity;BME280_pressure;Samples;Min_cycle;Max_cycle;Signal;HPM_P1;HPM_P2
2023/11/13 00:01:19;;;;;;;25.73;11.93;;;0.20;99.90;;;;;;4160338;28;20258;-56
2023/11/13 00:03:20;;;;;;;24.87;12.03;;;0.20;99.90;;;;;;4161812;28;20686;-56
2023/11/13 00:05:21;;;;;;;24.57;12.20;;;0.20;99.90;;;;;;4160573;28;20332;-58
2023/11/13 00:07:22;;;;;;;24.03;11.90;;;0.20;99.90;;;;;;4161688;28;20259;-57
2023/11/13 00:09:24;;;;;;;23.83;10.93;;;0.20;99.90;;;;;;4160372;28;20723;-60
2023/11/13 00:11:25;;;;;;;22.57;10.67;;;0.10;99.90;;;;;;4161399;28;20262;-60
2023/11/13 00:13:26;;;;;;;22.40;10.43;;;0.10;99.90;;;;;;4159959;28;20392;-63
2023/11/13 00:15:27;;;;;;;21.17;10.63;;;0.10;99.90;;;;;;4160870;28;20347;-60
2023/11/13 00:17:29;;;;;;;22.60;11.03;;;0.10;99.90;;;;;;4160315;28;20341;-55
2023/11/13 00:19:30;;;;;;;20.30;11.33;;;0.10;99.90;;;;;;4160674;28;20365;-59
2023/11/13 00:21:31;;;;;;;22.60;11.17;;;0.00;99.90;;;;;;4161060;28;20270;-57
2023/11/13 00:23:32;;;;;;;24.03;10.83;;;-0.10;99.90;;;;;;4160486;28;20333;-57
2023/11/13 00:25:33;;;;;;;20.73;10.27;;;-0.10;99.90;;;;;;4161137;28;20352;-57
2023/11/13 00:27:34;;;;;;;23.17;10.43;;;-0.10;99.90;;;;;;4159846;28;20755;-63
2023/11/13 00:29:35;;;;;;;19.93;10.83;;;-0.10;99.90;;;;;;4161164;28;20601;-55
2023/11/13 00:31:37;;;;;;;17.17;9.53;;;-0.10;99.90;;;;;;4159920;28;20659;-60
2023/11/13 00:33:38;;;;;;;19.20;10.67;;;-0.10;99.90;;;;;;4161293;28;20275;-58
2023/11/13 00:35:41;;;;;;;17.30;9.20;;;-0.10;99.90;;;;;;4160298;28;20325;-62
2023/11/13 00:37:42;;;;;;;21.60;11.20;;;0.00;99.90;;;;;;4160882;28;20274;-64
2023/11/13 00:39:43;;;;;;;16.90;9.87;;;-0.10;99.90;;;;;;4159878;28;20309;-60
2023/11/13 00:41:45;;;;;;;20.33;10.33;;;-0.10;99.90;;;;;;4159869;28;20623;-62
2023/11/13 00:43:46;;;;;;;18.00;10.13;;;0.00;99.90;;;;;;4160095;28;20620;-58
2023/11/13 00:45:48;;;;;;;19.37;9.87;;;0.00;99.90;;;;;;4160969;28;20397;-60
2023/11/13 00:47:49;;;;;;;20.00;9.53;;;0.00;99.90;;;;;;4159370;28;20254;-63
2023/11/13 00:49:50;;;;;;;19.23;9.43;;;0.00;99.90;;;;;;4160307;28;20320;-60
2023/11/13 00:51:53;;;;;;;15.07;8.83;;;0.00;99.90;;;;;;4160306;28;20328;-57
2023/11/13 00:53:54;;;;;;;16.43;9.57;;;0.00;99.90;;;;;;4160171;28;20282;-58
2023/11/13 00:55:55;;;;;;;18.60;9.10;;;0.00;99.90;;;;;;4160727;28;20321;-59
2023/11/13 00:57:56;;;;;;;10.97;6.57;;;0.10;99.90;;;;;;4159962;28;20601;-59
2023/11/13 00:59:57;;;;;;;14.07;7.83;;;0.00;99.90;;;;;;4160656;28;20282;-58
2023/11/13 01:02:01;;;;;;;17.70;8.30;;;0.00;99.90;;;;;;4159622;28;20702;-57
2023/11/13 01:04:03;;;;;;;12.93;7.57;;;0.00;99.90;;;;;;4159512;28;20329;-57
2023/11/13 01:06:04;;;;;;;14.67;8.13;;;0.00;99.90;;;;;;4160052;28;20377;-63
2023/11/13 01:08:05;;;;;;;13.63;7.40;;;0.00;99.90;;;;;;4161024;28;20279;-56
2023/11/13 01:10:07;;;;;;;13.80;7.70;;;0.10;99.90;;;;;;4159955;28;20266;-60
2023/11/13 01:12:08;;;;;;;17.07;8.37;;;0.00;99.90;;;;;;4160393;28;20330;-57
2023/11/13 01:14:10;;;;;;;15.53;8.37;;;0.00;99.90;;;;;;4158888;28;20392;-60
2023/11/13 01:16:11;;;;;;;12.60;6.93;;;-0.10;99.90;;;;;;4160906;28;20332;-57
2023/11/13 01:18:13;;;;;;;16.77;8.57;;;-0.10;99.90;;;;;;4159347;28;20299;-57
2023/11/13 01:20:18;;;;;;;17.50;9.63;;;-0.20;99.90;;;;;;4160279;28;20283;-57
2023/11/13 01:22:19;;;;;;;14.17;6.70;;;-0.20;99.90;;;;;;4160155;28;20623;-58
2023/11/13 01:24:20;;;;;;;12.40;6.60;;;-0.20;99.90;;;;;;4160327;28;20291;-58
2023/11/13 01:26:21;;;;;;;11.27;6.30;;;-0.20;99.90;;;;;;4160409;28;20258;-60
2023/11/13 01:28:22;;;;;;;9.00;5.60;;;-0.30;99.90;;;;;;4159974;28;20812;-58
2023/11/13 01:30:23;;;;;;;8.33;5.30;;;-0.30;99.90;;;;;;4160516;28;20329;-59
2023/11/13 01:32:25;;;;;;;12.10;5.50;;;-0.20;99.90;;;;;;4159936;28;20820;-55
2023/11/13 01:34:26;;;;;;;12.37;6.83;;;-0.20;99.90;;;;;;4160781;28;20360;-58
2023/11/13 01:36:27;;;;;;;11.90;6.27;;;-0.10;99.90;;;;;;4159953;28;20294;-58
2023/11/13 01:38:28;;;;;;;14.80;7.07;;;-0.10;99.90;;;;;;4161107;28;20849;-58
2023/11/13 01:40:30;;;;;;;12.63;6.07;;;-0.10;99.90;;;;;;4159354;28;20291;-55
2023/11/13 01:42:31;;;;;;;15.17;7.77;;;-0.20;99.90;;;;;;4160669;28;20332;-58
2023/11/13 01:44:32;;;;;;;14.13;7.60;;;-0.20;99.90;;;;;;4159231;28;20295;-60
2023/11/13 01:46:34;;;;;;;13.43;7.63;;;-0.30;99.90;;;;;;4160245;28;20405;-57
2023/11/13 01:48:36;;;;;;;14.57;7.60;;;-0.30;99.90;;;;;;4159446;28;20352;-59
2023/11/13 01:50:37;;;;;;;15.90;7.57;;;-0.30;99.90;;;;;;4160228;28;20279;-59
2023/11/13 01:52:38;;;;;;;15.37;8.70;;;-0.30;99.90;;;;;;4159627;28;20609;-58
2023/11/13 01:54:40;;;;;;;17.60;8.97;;;-0.40;99.90;;;;;;4160160;28;20282;-58
2023/11/13 01:56:43;;;;;;;19.23;8.67;;;-0.40;99.90;;;;;;4159957;28;20352;-57
2023/11/13 01:58:44;;;;;;;13.77;7.70;;;-0.40;99.90;;;;;;4161721;28;20275;-57
2023/11/13 02:00:46;;;;;;;15.03;7.70;;;-0.40;99.90;;;;;;4162899;28;20673;-59
2023/11/13 02:02:48;;;;;;;18.27;9.33;;;-0.50;99.90;;;;;;4161664;28;20726;-60
2023/11/13 02:04:50;;;;;;;14.63;8.07;;;-0.40;99.90;;;;;;4163525;28;20344;-56
2023/11/13 02:06:52;;;;;;;15.03;7.23;;;-0.40;99.90;;;;;;4162988;28;20286;-59
2023/11/13 02:08:53;;;;;;;11.57;6.50;;;-0.40;99.90;;;;;;4163237;28;20304;-59
2023/11/13 02:10:54;;;;;;;14.53;7.03;;;-0.40;99.90;;;;;;4160534;28;20307;-61
2023/11/13 02:12:55;;;;;;;11.47;6.17;;;-0.30;99.90;;;;;;4163545;28;20286;-54
2023/11/13 02:14:57;;;;;;;14.93;6.87;;;-0.30;99.90;;;;;;4161427;28;20348;-60
2023/11/13 02:17:05;;;;;;;12.60;5.30;;;-0.30;99.90;;;;;;4163290;28;20824;-56
2023/11/13 02:19:07;;;;;;;13.43;6.33;;;-0.30;99.90;;;;;;4161716;28;20391;-60
2023/11/13 02:21:09;;;;;;;12.17;6.30;;;-0.30;99.90;;;;;;4163040;28;20266;-57
2023/11/13 02:23:17;;;;;;;11.07;6.70;;;-0.30;99.90;;;;;;4161763;28;20341;-60
2023/11/13 02:25:26;;;;;;;13.37;6.47;;;-0.40;99.90;;;;;;4162814;28;20352;-59
2023/11/13 02:27:29;;;;;;;12.03;6.80;;;-0.50;99.90;;;;;;4161935;28;20255;-58
2023/11/13 02:29:30;;;;;;;10.37;6.33;;;-0.40;99.90;;;;;;4162800;28;20283;-59
2023/11/13 02:31:31;;;;;;;11.10;6.07;;;-0.50;99.90;;;;;;4162364;28;20419;-59
2023/11/13 02:33:32;;;;;;;15.23;6.63;;;-0.40;99.90;;;;;;4162824;28;20279;-58
2023/11/13 02:35:33;;;;;;;10.33;5.70;;;-0.40;99.90;;;;;;4162696;28;20271;-58
2023/11/13 02:37:34;;;;;;;11.63;6.73;;;-0.40;99.90;;;;;;4162498;28;20410;-58
2023/11/13 02:39:37;;;;;;;15.47;6.10;;;-0.40;99.90;;;;;;4162536;28;20305;-57
2023/11/13 02:41:38;;;;;;;11.40;6.33;;;-0.40;99.90;;;;;;4148475;28;20321;-57
2023/11/13 02:43:39;;;;;;;10.17;6.27;;;-0.40;99.90;;;;;;4162643;28;20678;-55
2023/11/13 02:45:41;;;;;;;11.27;6.37;;;-0.30;99.90;;;;;;4161522;28;20294;-58
2023/11/13 02:47:42;;;;;;;15.93;6.90;;;-0.40;99.90;;;;;;4162713;28;20271;-56
2023/11/13 02:49:43;;;;;;;12.10;6.67;;;-0.40;99.90;;;;;;4161574;28;20279;-56
2023/11/13 02:51:44;;;;;;;14.07;6.87;;;-0.40;99.90;;;;;;4162960;28;20262;-61
2023/11/13 02:53:45;;;;;;;11.83;6.50;;;-0.50;99.90;;;;;;4161177;28;20255;-58
2023/11/13 02:55:48;;;;;;;13.47;6.23;;;-0.60;99.90;;;;;;4162559;28;20324;-56
2023/11/13 02:57:52;;;;;;;10.87;5.57;;;-0.70;99.90;;;;;;4161134;28;20333;-55
2023/11/13 02:59:53;;;;;;;9.70;5.80;;;-0.70;99.90;;;;;;4162720;28;20804;-57
2023/11/13 03:01:54;;;;;;;11.03;5.43;;;-0.70;99.90;;;;;;4161952;28;20259;-59
2023/11/13 03:03:56;;;;;;;10.23;4.80;;;-0.70;99.90;;;;;;4163154;28;20348;-57
2023/11/13 03:05:57;;;;;;;10.83;5.70;;;-0.70;99.90;;;;;;4162199;28;20353;-59
2023/11/13 03:07:58;;;;;;;8.50;4.80;;;-0.70;99.90;;;;;;4161957;28;20722;-58
2023/11/13 03:10:00;;;;;;;11.87;5.50;;;-0.60;99.90;;;;;;4161410;28;20390;-58
2023/11/13 03:12:02;;;;;;;10.43;5.60;;;-0.60;99.90;;;;;;4154443;28;20290;-55
2023/11/13 03:14:03;;;;;;;14.07;5.93;;;-0.60;99.90;;;;;;4161835;28;20321;-55
2023/11/13 03:16:04;;;;;;;11.37;6.23;;;-0.60;99.90;;;;;;4160717;28;20282;-56
2023/11/13 03:18:06;;;;;;;13.53;5.57;;;-0.60;99.90;;;;;;4161964;28;20279;-58
2023/11/13 03:20:07;;;;;;;10.10;6.00;;;-0.60;99.90;;;;;;4161377;28;20267;-55
2023/11/13 03:22:09;;;;;;;11.20;5.73;;;-0.70;99.90;;;;;;4162386;28;20274;-59
2023/11/13 03:24:10;;;;;;;11.17;6.20;;;-0.60;99.90;;;;;;4161014;28;20364;-60
2023/11/13 03:26:12;;;;;;;11.83;6.17;;;-0.60;99.90;;;;;;4162315;28;20283;-59
2023/11/13 03:28:13;;;;;;;11.57;5.50;;;-0.70;99.90;;;;;;4161445;28;20278;-58
2023/11/13 03:30:14;;;;;;;9.07;5.77;;;-0.70;99.90;;;;;;4162242;28;20342;-59
2023/11/13 03:32:17;;;;;;;10.13;6.03;;;-0.60;99.90;;;;;;4161188;28;20275;-55
2023/11/13 03:34:19;;;;;;;11.90;6.03;;;-0.70;99.90;;;;;;4161757;28;20333;-59
2023/11/13 03:36:20;;;;;;;9.90;5.77;;;-0.60;99.90;;;;;;4161619;28;20329;-60
2023/11/13 03:38:21;;;;;;;9.83;5.37;;;-0.60;99.90;;;;;;4161485;28;20781;-61
2023/11/13 03:40:24;;;;;;;13.30;5.53;;;-0.60;99.90;;;;;;4160846;28;20274;-53
2023/11/13 03:42:25;;;;;;;9.57;4.80;;;-0.60;99.90;;;;;;4160805;28;20600;-62
2023/11/13 03:44:26;;;;;;;9.37;4.77;;;-0.50;99.90;;;;;;4160913;28;20259;-61
2023/11/13 03:46:28;;;;;;;9.50;5.23;;;-0.60;99.90;;;;;;4160382;28;20325;-61
2023/11/13 03:48:29;;;;;;;11.23;6.10;;;-0.50;99.90;;;;;;4161645;28;20320;-57
2023/11/13 03:50:30;;;;;;;14.87;6.00;;;-0.50;99.90;;;;;;4159896;28;20692;-56
2023/11/13 03:52:31;;;;;;;21.67;10.07;;;-0.50;99.90;;;;;;4161912;28;20295;-60
2023/11/13 03:54:32;;;;;;;9.57;5.10;;;-0.60;99.90;;;;;;4160368;28;20337;-62
2023/11/13 03:56:33;;;;;;;11.27;5.70;;;-0.60;99.90;;;;;;4161363;28;20275;-60
2023/11/13 03:58:35;;;;;;;9.80;5.40;;;-0.60;99.90;;;;;;4160421;28;20674;-62
2023/11/13 04:00:36;;;;;;;12.57;5.17;;;-0.60;99.90;;;;;;4161201;28;20356;-59
2023/11/13 04:02:37;;;;;;;9.23;4.80;;;-0.60;99.90;;;;;;4160284;28;20259;-57
2023/11/13 04:04:39;;;;;;;10.70;5.97;;;-0.60;99.90;;;;;;4161001;28;20816;-58
2023/11/13 04:06:40;;;;;;;13.23;5.60;;;-0.60;99.90;;;;;;4160279;28;20283;-61
2023/11/13 04:08:41;;;;;;;8.83;4.57;;;-0.60;99.90;;;;;;4160619;28;20577;-59
2023/11/13 04:10:42;;;;;;;8.47;4.37;;;-0.60;99.90;;;;;;4159784;28;20267;-62
2023/11/13 04:12:44;;;;;;;9.27;4.53;;;-0.50;99.90;;;;;;4159540;28;20282;-60
2023/11/13 04:14:45;;;;;;;9.77;4.80;;;-0.50;99.90;;;;;;4161586;28;20329;-59
2023/11/13 04:16:46;;;;;;;8.43;4.60;;;-0.50;99.90;;;;;;4159974;28;20270;-58
2023/11/13 04:18:47;;;;;;;6.60;3.97;;;-0.50;99.90;;;;;;4161139;28;20674;-58
2023/11/13 04:20:49;;;;;;;8.97;4.30;;;-0.50;99.90;;;;;;4160076;28;20329;-59
2023/11/13 04:22:50;;;;;;;20.60;5.97;;;-0.50;99.90;;;;;;4160205;28;20321;-62
2023/11/13 04:24:53;;;;;;;9.70;5.27;;;-0.50;99.90;;;;;;4159880;28;20367;-63
2023/11/13 04:26:54;;;;;;;8.87;4.83;;;-0.50;99.90;;;;;;4161065;28;20762;-61
2023/11/13 04:28:55;;;;;;;9.70;4.20;;;-0.50;99.90;;;;;;4160222;28;20329;-61
2023/11/13 04:30:57;;;;;;;13.47;4.50;;;-0.50;99.90;;;;;;4161353;28;20283;-62
2023/11/13 04:32:58;;;;;;;9.23;4.00;;;-0.40;99.90;;;;;;4160106;28;20286;-62
2023/11/13 04:34:59;;;;;;;10.37;4.10;;;-0.40;99.90;;;;;;4160321;28;20759;-62
2023/11/13 04:37:00;;;;;;;10.20;4.23;;;-0.40;99.90;;;;;;4159822;28;20712;-61
2023/11/13 04:39:01;;;;;;;6.93;3.17;;;-0.40;99.90;;;;;;4160527;28;20325;-62
2023/11/13 04:41:02;;;;;;;11.97;3.60;;;-0.40;99.90;;;;;;4160286;28;20258;-62
2023/11/13 04:43:03;;;;;;;10.67;4.53;;;-0.40;99.90;;;;;;4160111;28;20259;-60
2023/11/13 04:45:05;;;;;;;15.47;5.20;;;-0.40;99.90;;;;;;4160623;28;20758;-56
2023/11/13 04:47:08;;;;;;;16.77;6.80;;;-0.50;99.90;;;;;;4158832;28;20642;-61
2023/11/13 04:49:09;;;;;;;24.50;9.27;;;-0.60;99.90;;;;;;4159951;28;20348;-60
2023/11/13 04:51:10;;;;;;;18.63;6.77;;;-0.70;99.90;;;;;;4157462;28;20333;-60
2023/11/13 04:53:11;;;;;;;12.07;5.67;;;-0.80;99.90;;;;;;4161068;28;20360;-59
2023/11/13 04:55:13;;;;;;;11.47;6.17;;;-0.90;99.90;;;;;;4159936;28;20332;-61
2023/11/13 04:57:14;;;;;;;15.00;6.20;;;-1.00;99.90;;;;;;4161301;28;20302;-58
2023/11/13 04:59:15;;;;;;;13.60;6.53;;;-1.00;99.90;;;;;;4159846;28;20255;-61
2023/11/13 05:01:17;;;;;;;10.73;6.37;;;-1.00;99.90;;;;;;4160283;28;20662;-61
2023/11/13 05:03:19;;;;;;;15.37;7.63;;;-1.00;99.90;;;;;;4159758;28;20332;-60
2023/11/13 05:05:20;;;;;;;13.40;7.07;;;-1.10;99.90;;;;;;4160396;28;20348;-58
2023/11/13 05:07:21;;;;;;;15.03;7.77;;;-1.10;99.90;;;;;;4160438;28;20274;-56
2023/11/13 05:09:23;;;;;;;15.97;7.07;;;-1.10;99.90;;;;;;4160070;28;20611;-60
2023/11/13 05:11:26;;;;;;;12.63;6.30;;;-1.10;99.90;;;;;;4159950;28;21101;-58
2023/11/13 05:13:27;;;;;;;13.03;5.37;;;-1.20;99.90;;;;;;4159539;28;20691;-59
2023/11/13 05:15:29;;;;;;;14.50;5.87;;;-1.20;99.90;;;;;;4159845;28;20274;-60
2023/11/13 05:17:31;;;;;;;15.07;6.30;;;-1.20;99.90;;;;;;4158923;28;21387;-60
2023/11/13 05:19:32;;;;;;;16.27;5.90;;;-1.20;99.90;;;;;;4160385;28;20270;-56
2023/11/13 05:21:35;;;;;;;11.03;5.70;;;-1.10;99.90;;;;;;4159534;28;20287;-56
2023/11/13 05:23:37;;;;;;;13.00;7.93;;;-1.10;99.90;;;;;;4160979;28;20266;-59
2023/11/13 05:25:39;;;;;;;9.10;5.20;;;-1.10;99.90;;;;;;4159379;28;20352;-61
2023/11/13 05:27:40;;;;;;;9.30;5.17;;;-1.00;99.90;;;;;;4160554;28;20731;-55
2023/11/13 05:29:42;;;;;;;10.33;4.93;;;-1.00;99.90;;;;;;4159222;28;20785;-57
2023/11/13 05:31:43;;;;;;;12.63;5.97;;;-0.90;99.90;;;;;;4160636;28;20278;-56
2023/11/13 05:33:44;;;;;;;8.43;5.00;;;-0.90;99.90;;;;;;4161055;28;20282;-59
2023/11/13 05:35:45;;;;;;;12.53;6.50;;;-0.80;99.90;;;;;;4163695;28;20274;-60
2023/11/13 05:37:46;;;;;;;12.30;5.77;;;-0.80;99.90;;;;;;4162914;28;20669;-58
2023/11/13 05:39:47;;;;;;;12.87;6.27;;;-0.70;99.90;;;;;;4163206;28;20321;-59
2023/11/13 05:41:48;;;;;;;12.67;6.17;;;-0.70;99.90;;;;;;4162947;28;20401;-58
2023/11/13 05:43:51;;;;;;;15.60;7.20;;;-0.70;99.90;;;;;;4163138;28;20267;-60
2023/11/13 05:45:53;;;;;;;14.20;6.60;;;-0.70;99.90;;;;;;4162983;28;20356;-57
2023/11/13 05:47:54;;;;;;;12.23;6.80;;;-0.70;99.90;;;;;;4152474;28;20771;-58
2023/11/13 05:49:55;;;;;;;12.10;5.90;;;-0.60;99.90;;;;;;4146785;28;20260;-62
2023/11/13 05:51:57;;;;;;;14.90;7.10;;;-0.50;99.90;;;;;;4161194;28;20283;-61
2023/11/13 05:53:58;;;;;;;13.93;7.10;;;-0.40;99.90;;;;;;4163442;28;20294;-62
2023/11/13 05:55:59;;;;;;;25.67;12.67;;;-0.30;99.90;;;;;;4161216;28;20312;-63
2023/11/13 05:58:00;;;;;;;39.50;18.90;;;-0.30;99.90;;;;;;4163464;28;20341;-62
2023/11/13 06:00:02;;;;;;;28.97;14.90;;;-0.30;99.90;;;;;;4162295;28;20361;-59
2023/11/13 06:02:04;;;;;;;31.10;14.10;;;-0.20;99.90;;;;;;4162255;28;20270;-58
2023/11/13 06:04:05;;;;;;;36.73;16.63;;;-0.10;99.90;;;;;;4161842;28;20290;-63
2023/11/13 06:06:12;;;;;;;24.70;13.17;;;0.10;99.90;;;;;;4163198;28;20774;-59
2023/11/13 06:08:13;;;;;;;22.93;11.87;;;0.30;99.90;;;;;;4162823;28;20278;-60
2023/11/13 06:10:14;;;;;;;25.50;11.97;;;0.60;99.90;;;;;;4162761;28;20669;-61
2023/11/13 06:12:15;;;;;;;20.70;9.83;;;0.90;99.90;;;;;;4162491;28;20259;-62
2023/11/13 06:14:16;;;;;;;25.00;11.20;;;1.30;99.90;;;;;;4162981;28;20267;-61
2023/11/13 06:16:18;;;;;;;24.60;10.67;;;1.60;99.90;;;;;;4162410;28;20722;-58
2023/11/13 06:18:20;;;;;;;25.13;12.07;;;1.90;99.90;;;;;;4162522;28;20325;-61
2023/11/13 06:20:22;;;;;;;23.20;11.60;;;2.00;99.90;;;;;;4162518;28;20313;-65
2023/11/13 06:22:23;;;;;;;28.20;10.93;;;2.30;99.90;;;;;;4162039;28;20266;-63
2023/11/13 06:24:24;;;;;;;20.73;10.50;;;2.50;99.90;;;;;;4163006;28;20749;-63
2023/11/13 06:26:26;;;;;;;23.97;10.73;;;2.60;99.90;;;;;;4161743;28;20313;-62
2023/11/13 06:28:28;;;;;;;20.93;10.90;;;2.60;99.90;;;;;;4163249;28;20274;-60
2023/11/13 06:30:30;;;;;;;22.23;9.77;;;2.50;99.90;;;;;;4162051;28;20325;-60
2023/11/13 06:32:31;;;;;;;18.13;10.23;;;2.50;99.90;;;;;;4163079;28;20275;-61
2023/11/13 06:34:33;;;;;;;24.43;11.33;;;2.40;99.90;;;;;;4161558;28;20301;-62
2023/11/13 06:36:34;;;;;;;21.73;11.37;;;2.40;99.90;;;;;;4163076;28;20425;-61
2023/11/13 06:38:36;;;;;;;21.10;10.63;;;2.40;99.90;;;;;;4161913;28;20297;-60
2023/11/13 06:40:37;;;;;;;21.27;11.30;;;2.40;99.90;;;;;;4162531;28;20271;-63
2023/11/13 06:42:38;;;;;;;22.67;12.57;;;2.50;99.90;;;;;;4161935;28;21031;-61
2023/11/13 06:44:39;;;;;;;24.33;13.53;;;2.50;99.90;;;;;;4161207;28;20279;-58
2023/11/13 06:46:40;;;;;;;25.87;13.30;;;2.30;99.90;;;;;;4161764;28;20294;-61
2023/11/13 06:48:44;;;;;;;24.00;12.23;;;2.10;99.90;;;;;;4161998;28;20697;-62
2023/11/13 06:50:46;;;;;;;25.87;13.97;;;1.90;99.90;;;;;;4162122;28;20601;-58
2023/11/13 06:52:47;;;;;;;27.57;14.90;;;1.70;99.90;;;;;;4161435;28;20316;-59
2023/11/13 06:54:48;;;;;;;23.77;11.97;;;1.50;99.90;;;;;;4162155;28;20324;-61
2023/11/13 06:56:50;;;;;;;23.10;10.07;;;1.30;99.90;;;;;;4161146;28;20325;-60
2023/11/13 06:58:51;;;;;;;18.70;10.70;;;1.20;99.90;;;;;;4162392;28;20305;-62
2023/11/13 07:00:52;;;;;;;19.30;10.90;;;1.10;99.90;;;;;;4161545;28;20271;-63
2023/11/13 07:02:53;;;;;;;23.43;11.73;;;1.30;99.90;;;;;;4162379;28;20428;-62
2023/11/13 07:04:55;;;;;;;26.00;13.60;;;1.60;99.90;;;;;;4161228;28;20266;-59
2023/11/13 07:06:56;;;;;;;20.03;12.03;;;2.00;99.90;;;;;;4162470;28;20294;-61
2023/11/13 07:08:57;;;;;;;19.83;12.70;;;2.40;99.90;;;;;;4161062;28;20592;-60
2023/11/13 07:10:59;;;;;;;27.47;14.60;;;2.80;99.90;;;;;;4162396;28;20278;-57
2023/11/13 07:13:00;;;;;;;27.50;14.67;;;3.10;99.90;;;;;;4161155;28;20297;-60
2023/11/13 07:15:03;;;;;;;28.13;15.63;;;3.20;99.90;;;;;;4161813;28;20270;-59
2023/11/13 07:17:05;;;;;;;27.30;13.30;;;3.30;99.90;;;;;;4161275;28;20890;-61
2023/11/13 07:19:07;;;;;;;26.60;13.27;;;3.40;99.90;;;;;;4161523;28;20738;-59
2023/11/13 07:21:09;;;;;;;27.67;12.73;;;3.70;99.90;;;;;;4161644;28;20259;-58
2023/11/13 07:23:16;;;;;;;25.77;13.63;;;3.90;99.90;;;;;;4161175;28;20344;-62
2023/11/13 07:25:17;;;;;;;25.83;11.23;;;4.10;99.90;;;;;;4161358;28;20348;-61
2023/11/13 07:27:19;;;;;;;29.97;11.93;;;4.40;99.90;;;;;;4160851;28;20275;-63
2023/11/13 07:29:21;;;;;;;23.00;11.63;;;4.60;99.90;;;;;;4161989;28;20278;-59
2023/11/13 07:31:23;;;;;;;24.80;11.00;;;4.80;99.90;;;;;;4160834;28;20274;-60
2023/11/13 07:33:24;;;;;;;23.70;10.77;;;4.60;99.90;;;;;;4162010;28;20329;-60
2023/11/13 07:35:26;;;;;;;25.37;10.80;;;4.70;99.90;;;;;;4160787;28;20275;-59
2023/11/13 07:37:28;;;;;;;22.30;12.20;;;4.70;99.90;;;;;;4161937;28;20286;-61
2023/11/13 07:39:31;;;;;;;28.47;13.50;;;4.80;99.90;;;;;;4160509;28;20282;-57
2023/11/13 07:41:33;;;;;;;25.47;13.97;;;4.60;99.90;;;;;;4161912;28;20314;-61
2023/11/13 07:43:34;;;;;;;30.63;14.00;;;4.60;99.90;;;;;;4160356;28;20287;-59
2023/11/13 07:45:38;;;;;;;29.17;14.47;;;4.50;99.90;;;;;;4161701;28;20573;-60
2023/11/13 07:47:42;;;;;;;25.53;12.63;;;4.70;99.90;;;;;;4160574;28;20262;-61
2023/11/13 07:49:44;;;;;;;27.43;13.80;;;4.40;99.90;;;;;;4161223;28;20033;-59
2023/11/13 07:51:48;;;;;;;22.00;12.20;;;4.50;99.90;;;;;;4160808;28;20183;-60
2023/11/13 07:53:49;;;;;;;19.90;9.60;;;4.50;99.90;;;;;;4161313;28;20271;-64
2023/11/13 07:55:50;;;;;;;21.00;9.93;;;4.60;99.90;;;;;;4160762;28;20874;-60
2023/11/13 07:57:53;;;;;;;21.60;9.27;;;4.70;99.90;;;;;;4160799;28;20328;-61
2023/11/13 07:59:55;;;;;;;21.20;9.43;;;4.60;99.90;;;;;;4161266;28;20263;-59
2023/11/13 08:01:56;;;;;;;23.33;9.97;;;4.50;99.90;;;;;;4160461;28;20348;-62
2023/11/13 08:03:58;;;;;;;15.77;7.10;;;4.40;99.90;;;;;;4161494;28;20274;-61
2023/11/13 08:05:59;;;;;;;14.50;6.77;;;4.20;99.90;;;;;;4160332;28;20294;-60
2023/11/13 08:08:02;;;;;;;14.43;6.10;;;3.90;99.90;;;;;;4161966;28;20552;-62
2023/11/13 08:10:12;;;;;;;11.70;5.90;;;3.50;99.90;;;;;;4160204;28;20250;-59
2023/11/13 08:12:13;;;;;;;14.07;5.60;;;3.20;99.90;;;;;;4161512;28;20329;-61
2023/11/13 08:14:14;;;;;;;14.07;5.57;;;3.10;99.90;;;;;;4160367;28;20274;-62
2023/11/13 08:16:15;;;;;;;10.53;6.00;;;3.00;99.90;;;;;;4161430;28;20704;-60
2023/11/13 08:18:18;;;;;;;9.90;5.80;;;3.00;99.90;;;;;;4160118;28;20321;-63
2023/11/13 08:20:25;;;;;;;11.73;6.50;;;3.10;99.90;;;;;;4161269;28;20403;-61
2023/11/13 08:22:27;;;;;;;9.47;6.07;;;3.10;99.90;;;;;;4159817;28;20267;-62
2023/11/13 08:24:29;;;;;;;9.17;4.60;;;3.10;99.90;;;;;;4160700;28;20452;-62
2023/11/13 08:26:32;;;;;;;6.70;3.93;;;3.20;99.90;;;;;;4160192;28;20298;-61
2023/11/13 08:28:33;;;;;;;7.57;4.33;;;3.20;99.90;;;;;;4159666;28;20283;-60
2023/11/13 08:30:35;;;;;;;5.67;3.87;;;3.10;99.90;;;;;;4160221;28;20274;-59
2023/11/13 08:32:36;;;;;;;7.37;4.40;;;3.10;99.90;;;;;;4160472;28;20267;-64
2023/11/13 08:34:38;;;;;;;12.27;5.13;;;3.10;99.90;;;;;;4160476;28;20267;-60
2023/11/13 08:36:39;;;;;;;9.13;4.80;;;3.10;99.90;;;;;;4159339;28;20356;-63
2023/11/13 08:38:40;;;;;;;12.17;4.77;;;3.10;99.90;;;;;;4160790;28;20329;-60
2023/11/13 08:40:41;;;;;;;8.10;4.63;;;3.20;99.90;;;;;;4159810;28;20270;-62
2023/11/13 08:42:43;;;;;;;8.40;4.47;;;3.20;99.90;;;;;;4159191;28;20279;-59
2023/11/13 08:44:44;;;;;;;9.97;4.67;;;3.30;99.90;;;;;;4159648;28;20328;-63
2023/11/13 08:46:46;;;;;;;6.60;4.53;;;3.30;99.90;;;;;;4161003;28;20646;-63
2023/11/13 08:48:47;;;;;;;9.70;4.93;;;3.30;99.90;;;;;;4159499;28;20286;-63
2023/11/13 08:50:48;;;;;;;9.73;5.00;;;3.40;99.90;;;;;;4160833;28;20259;-60
2023/11/13 08:52:50;;;;;;;12.07;6.13;;;3.30;99.90;;;;;;4157648;28;20333;-57
2023/11/13 08:54:52;;;;;;;9.23;5.17;;;3.20;99.90;;;;;;4160924;28;20688;-61
2023/11/13 08:56:53;;;;;;;9.73;4.80;;;3.10;99.90;;;;;;4159554;28;20263;-62
2023/11/13 08:58:54;;;;;;;11.00;6.07;;;3.10;99.90;;;;;;4160626;28;20266;-63
2023/11/13 09:00:56;;;;;;;12.07;5.57;;;3.10;99.90;;;;;;4160080;28;20279;-62
2023/11/13 09:02:57;;;;;;;11.43;6.13;;;3.00;99.90;;;;;;4160131;28;20263;-61
2023/11/13 09:05:00;;;;;;;16.00;6.30;;;3.00;99.90;;;;;;4159929;28;20861;-64
2023/11/13 09:07:07;;;;;;;12.67;6.47;;;3.10;99.90;;;;;;4159984;28;20290;-64
2023/11/13 09:09:12;;;;;;;12.27;6.83;;;3.10;99.90;;;;;;4163645;28;20328;-60
2023/11/13 09:11:19;;;;;;;11.77;6.27;;;3.20;99.90;;;;;;4161991;28;20279;-63
2023/11/13 09:13:23;;;;;;;14.37;6.80;;;3.40;99.90;;;;;;4163872;28;20793;-64
2023/11/13 09:15:25;;;;;;;12.33;6.87;;;3.50;99.90;;;;;;4163122;28;20340;-63
2023/11/13 09:17:26;;;;;;;14.03;7.03;;;3.60;99.90;;;;;;4163923;28;20333;-61
2023/11/13 09:19:27;;;;;;;15.87;7.33;;;3.60;99.90;;;;;;4161427;28;20349;-61
2023/11/13 09:21:28;;;;;;;13.07;7.67;;;3.60;99.90;;;;;;4163998;28;20412;-61
2023/11/13 09:23:29;;;;;;;17.27;8.13;;;3.60;99.90;;;;;;4163093;28;20337;-63
2023/11/13 09:25:32;;;;;;;17.03;7.23;;;3.60;99.90;;;;;;4163991;28;20294;-63
2023/11/13 09:27:33;;;;;;;11.70;6.20;;;3.60;99.90;;;;;;4162718;28;20368;-64
2023/11/13 09:29:35;;;;;;;11.50;6.53;;;3.70;99.90;;;;;;4163918;28;20278;-63
2023/11/13 09:31:36;;;;;;;14.03;6.77;;;3.70;99.90;;;;;;4162401;28;20790;-61
2023/11/13 09:33:39;;;;;;;10.60;6.50;;;4.00;99.90;;;;;;4163555;28;20409;-58
2023/11/13 09:35:41;;;;;;;10.47;6.00;;;4.10;99.90;;;;;;4162483;28;20263;-61
2023/11/13 09:37:42;;;;;;;10.47;5.67;;;4.30;99.90;;;;;;4163878;28;20335;-58
2023/11/13 09:39:46;;;;;;;12.80;6.50;;;4.40;99.90;;;;;;4162926;28;20282;-60
2023/11/13 09:41:51;;;;;;;11.63;6.20;;;4.50;99.90;;;;;;4162956;28;20282;-64
2023/11/13 09:43:53;;;;;;;12.77;6.00;;;4.50;99.90;;;;;;4162039;28;20271;-58
2023/11/13 09:45:56;;;;;;;9.50;5.57;;;4.70;99.90;;;;;;4162527;28;20063;-62
2023/11/13 09:47:59;;;;;;;8.47;5.23;;;4.90;99.90;;;;;;4163464;28;20908;-61
2023/11/13 09:50:15;;;;;;;9.87;5.77;;;4.90;99.90;;;;;;4162442;28;20324;-59
2023/11/13 09:52:18;;;;;;;8.63;5.13;;;5.10;99.90;;;;;;4161722;28;20275;-59
2023/11/13 09:54:20;;;;;;;7.17;5.23;;;5.20;99.90;;;;;;4162342;28;20123;-59
2023/11/13 09:56:23;;;;;;;7.07;4.27;;;5.30;99.90;;;;;;4163411;28;20033;-62
2023/11/13 09:58:24;;;;;;;7.80;3.97;;;5.40;99.90;;;;;;4162169;28;20486;-58
2023/11/13 10:00:26;;;;;;;6.07;3.90;;;5.40;99.90;;;;;;4163421;28;20383;-60
2023/11/13 10:02:28;;;;;;;6.67;4.30;;;5.50;99.90;;;;;;4162517;28;20084;-63
2023/11/13 10:04:29;;;;;;;5.50;3.80;;;5.50;99.90;;;;;;4163243;28;20033;-59
2023/11/13 10:06:35;;;;;;;7.27;4.33;;;5.60;99.90;;;;;;4161918;28;20033;-61
2023/11/13 10:08:47;;;;;;;5.57;3.40;;;5.70;99.90;;;;;;4163753;28;20046;-61
2023/11/13 10:10:49;;;;;;;11.17;5.00;;;5.80;99.90;;;;;;4162115;28;20025;-65
2023/11/13 10:13:00;;;;;;;8.60;3.87;;;5.80;99.90;;;;;;4163565;28;20037;-61
2023/11/13 10:15:08;;;;;;;8.43;3.60;;;5.90;99.90;;;;;;4161968;28;20026;-59
2023/11/13 10:17:09;;;;;;;8.27;4.00;;;6.00;99.90;;;;;;4163330;28;20048;-62
2023/11/13 10:19:16;;;;;;;10.67;4.47;;;6.10;99.90;;;;;;4161455;28;20026;-58
2023/11/13 10:21:31;;;;;;;4.50;3.40;;;6.30;99.90;;;;;;4162836;28;20029;-59
2023/11/13 10:23:35;;;;;;;4.67;3.47;;;6.40;99.90;;;;;;4161817;28;20037;-57
2023/11/13 10:25:46;;;;;;;9.47;3.30;;;6.50;99.90;;;;;;4163044;28;20416;-62
2023/11/13 10:28:01;;;;;;;4.47;3.00;;;6.60;99.90;;;;;;4161707;28;20038;-61
2023/11/13 10:30:04;;;;;;;5.37;3.47;;;6.70;99.90;;;;;;4163019;28;20079;-59